Harrison, Wisconsin
Current Conditions -  °F | °C
As of 8:15 AM on Wednesday 28 Jan 2015 (Local Time) from KRRL Reporting Station
Haze Haze  
Wind Chill: 24°   Ceiling: 700
Heat Index: 24°   Visibility: 4mi
Dew Point: 22°   Wind: 3mph
Humidity: 94%   Direction: 170°S
Pressure: 30.12"   Gusts: NA
Location:  45.3595°N, 89.45°W
Report Text: KRRL 281415Z AUTO 17003KT 4SM BR OVC007 M05/M05 A3012 RMK AO2 T10461055
Loading
Personal Weather Stations






























Interactive Weather Map New forecast layout! Learn more

10-Day Weather Forecast

Advertisements
Track Severe Weather on mobile